Time;durP1;ratioP1;P1;durP2;ratioP2;P2;SDS_P1;SDS_P2;PMS_P1;PMS_P2;Temp;Humidity;BMP_temperature;BMP_pressure;BME280_temperature;BME280_humidity;BME280_pressure;Samples;Min_cycle;Max_cycle;Signal;HPM_P1;HPM_P2
2024/03/30 00:00:36;;;;;;;13.60;7.70;;;;;;;11.04;64.59;99616.27;106794;1260;99981;-80
2024/03/30 00:03:41;;;;;;;14.10;7.20;;;;;;;11.02;65.06;99614.60;106794;1260;104166;-80
2024/03/30 00:06:27;;;;;;;13.00;6.50;;;;;;;11.03;65.22;99614.22;106283;1262;100364;-80
2024/03/30 00:09:13;;;;;;;12.30;7.40;;;;;;;11.02;65.44;99613.95;106238;1263;99549;-79
2024/03/30 00:11:58;;;;;;;12.20;6.70;;;;;;;11.01;65.73;99611.56;106317;1260;99757;-79
2024/03/30 00:14:44;;;;;;;15.00;6.80;;;;;;;11.00;66.23;99609.70;106261;1261;99287;-80
2024/03/30 00:17:30;;;;;;;12.50;6.80;;;;;;;10.99;66.54;99608.47;106295;1261;102716;-81
2024/03/30 00:20:16;;;;;;;12.50;6.40;;;;;;;10.98;66.75;99607.03;106701;1264;99291;-81
2024/03/30 00:23:01;;;;;;;12.90;6.70;;;;;;;10.97;66.91;99609.26;106793;1261;99198;-81
2024/03/30 00:25:53;;;;;;;15.50;6.80;;;;;;;10.96;67.18;99603.54;106461;1260;99262;-81
2024/03/30 00:28:39;;;;;;;12.00;6.30;;;;;;;10.95;67.46;99598.48;106297;1264;99802;-79
2024/03/30 00:31:27;;;;;;;17.30;7.50;;;;;;;10.95;67.63;99599.17;106036;1263;103962;-81
2024/03/30 00:34:13;;;;;;;12.40;6.90;;;;;;;10.95;67.88;99593.69;106047;1264;99370;-80
2024/03/30 00:36:58;;;;;;;15.00;7.30;;;;;;;10.95;67.84;99590.80;106266;1261;99265;-80
2024/03/30 00:39:44;;;;;;;15.50;6.40;;;;;;;10.95;68.25;99591.30;106232;1262;99273;-80
2024/03/30 00:42:29;;;;;;;11.20;6.20;;;;;;;10.94;68.67;99588.42;105997;1261;98749;-79
2024/03/30 00:45:15;;;;;;;14.60;5.90;;;;;;;10.94;68.84;99584.80;106012;1261;104006;-79
2024/03/30 00:48:00;;;;;;;15.20;7.00;;;;;;;10.92;68.91;99585.34;105953;1262;99310;-78
2024/03/30 00:50:45;;;;;;;10.30;6.10;;;;;;;10.90;69.19;99578.05;105886;1262;99380;-79
2024/03/30 00:53:31;;;;;;;11.80;6.50;;;;;;;10.90;69.35;99581.92;105932;1265;99356;-79
2024/03/30 00:56:16;;;;;;;13.50;6.80;;;;;;;10.89;69.47;99589.89;106012;1260;100936;-80
2024/03/30 00:59:02;;;;;;;14.50;6.70;;;;;;;10.90;69.53;99595.16;106054;1262;102710;-80
2024/03/30 01:01:48;;;;;;;15.90;7.20;;;;;;;10.91;69.78;99602.33;106275;1260;99338;-79
2024/03/30 01:04:34;;;;;;;15.10;7.10;;;;;;;10.91;69.75;99601.70;105927;1262;99288;-78
2024/03/30 01:07:19;;;;;;;12.80;6.50;;;;;;;10.92;69.95;99605.58;106452;1265;99459;-79
2024/03/30 01:10:07;;;;;;;13.90;6.90;;;;;;;10.91;69.99;99604.60;106545;1265;100316;-79
2024/03/30 01:12:53;;;;;;;11.40;6.20;;;;;;;10.91;70.09;99606.58;105946;1260;102835;-79
2024/03/30 01:15:38;;;;;;;12.80;6.80;;;;;;;10.90;70.32;99609.41;105849;1265;99205;-79
2024/03/30 01:18:25;;;;;;;11.60;6.50;;;;;;;10.87;70.45;99610.49;106014;1262;99297;-79
2024/03/30 01:21:11;;;;;;;12.90;6.20;;;;;;;10.85;70.66;99612.36;106052;1262;99226;-79
2024/03/30 01:23:56;;;;;;;17.50;8.40;;;;;;;10.81;70.79;99610.28;106521;1260;99322;-79
2024/03/30 01:26:51;;;;;;;14.30;7.10;;;;;;;10.78;70.68;99611.61;106486;1264;102701;-80
2024/03/30 01:29:39;;;;;;;15.70;8.10;;;;;;;10.74;70.81;99607.67;106511;1262;99347;-80
2024/03/30 01:32:25;;;;;;;16.80;8.10;;;;;;;10.72;71.20;99604.39;106362;1263;99236;-79
2024/03/30 01:35:12;;;;;;;13.90;7.90;;;;;;;10.71;70.93;99603.31;106438;1261;99245;-80
2024/03/30 01:37:57;;;;;;;16.50;7.50;;;;;;;10.69;71.15;99601.59;106607;1262;99331;-80
2024/03/30 01:40:42;;;;;;;17.20;7.90;;;;;;;10.67;71.26;99601.14;106570;1261;102860;-79
2024/03/30 01:43:28;;;;;;;14.80;7.50;;;;;;;10.66;71.42;99602.83;106224;1265;100492;-80
2024/03/30 01:46:13;;;;;;;13.60;7.00;;;;;;;10.65;71.74;99597.47;106471;1262;99247;-80
2024/03/30 01:49:01;;;;;;;12.50;7.50;;;;;;;10.65;71.71;99594.85;106592;1262;97937;-80
2024/03/30 01:51:48;;;;;;;17.20;7.30;;;;;;;10.65;72.11;99594.18;106535;1262;99853;-80
2024/03/30 01:54:35;;;;;;;15.60;7.70;;;;;;;10.64;72.30;99590.27;106578;1262;102838;-81
2024/03/30 01:57:22;;;;;;;11.60;6.30;;;;;;;10.64;72.51;99588.33;106686;1261;100369;-82
2024/03/30 02:00:08;;;;;;;15.70;9.10;;;;;;;10.63;72.61;99592.64;106698;1261;99540;-82
2024/03/30 02:02:54;;;;;;;13.40;7.90;;;;;;;10.62;72.79;99599.14;106654;1267;99257;-81
2024/03/30 02:05:40;;;;;;;14.30;8.60;;;;;;;10.62;72.84;99600.08;106786;1262;97742;-81
2024/03/30 02:08:27;;;;;;;13.90;8.30;;;;;;;10.62;73.14;99597.20;106190;1262;102910;-78
2024/03/30 02:11:14;;;;;;;15.30;7.80;;;;;;;10.61;73.15;99598.56;106303;1262;100573;-80
2024/03/30 02:13:59;;;;;;;15.60;8.40;;;;;;;10.60;73.38;99597.33;106061;1262;99333;-79
2024/03/30 02:16:45;;;;;;;15.20;7.50;;;;;;;10.59;73.42;99602.41;105850;1264;99335;-78
2024/03/30 02:19:37;;;;;;;13.90;7.40;;;;;;;10.58;73.50;99607.55;106185;1262;99135;-81
2024/03/30 02:22:23;;;;;;;15.00;7.20;;;;;;;10.56;73.47;99608.01;106754;1262;103367;-82
2024/03/30 02:25:09;;;;;;;13.20;7.60;;;;;;;10.53;73.73;99609.02;106651;1262;99254;-81
2024/03/30 02:27:55;;;;;;;15.60;8.40;;;;;;;10.49;73.87;99618.87;106637;1261;99029;-81
2024/03/30 02:30:42;;;;;;;16.10;7.70;;;;;;;10.46;73.86;99620.69;106861;1267;99341;-79
2024/03/30 02:33:28;;;;;;;14.40;7.90;;;;;;;10.44;73.98;99620.48;106558;1264;99329;-79
2024/03/30 02:36:15;;;;;;;16.90;8.00;;;;;;;10.40;74.14;99616.21;106358;1262;102834;-80
2024/03/30 02:39:00;;;;;;;16.30;8.00;;;;;;;10.36;74.00;99614.28;106634;1260;100389;-79
2024/03/30 02:41:46;;;;;;;24.00;10.90;;;;;;;10.33;74.11;99609.69;106429;1262;98720;-79
2024/03/30 02:44:31;;;;;;;25.90;12.80;;;;;;;10.31;74.46;99608.45;106616;1263;99132;-79
2024/03/30 02:47:17;;;;;;;23.70;12.60;;;;;;;10.30;74.85;99610.19;106030;1260;99770;-79
2024/03/30 02:50:03;;;;;;;23.30;11.80;;;;;;;10.31;75.03;99614.27;106018;1262;102771;-79
2024/03/30 02:52:48;;;;;;;18.50;10.70;;;;;;;10.30;75.34;99614.67;105990;1268;100500;-80
2024/03/30 02:55:33;;;;;;;16.20;9.20;;;;;;;10.29;75.80;99615.86;105972;1267;99836;-80
2024/03/30 02:58:18;;;;;;;17.60;9.10;;;;;;;10.28;76.16;99618.01;106564;1262;99332;-80
2024/03/30 03:01:04;;;;;;;18.10;8.70;;;;;;;10.26;76.20;99620.08;106710;1262;99995;-80
2024/03/30 03:03:50;;;;;;;16.90;9.70;;;;;;;10.25;76.33;99627.23;106744;1262;102763;-81
2024/03/30 03:06:35;;;;;;;17.70;8.80;;;;;;;10.23;76.41;99630.37;106606;1262;100102;-80
2024/03/30 03:09:21;;;;;;;14.70;8.20;;;;;;;10.22;76.51;99632.80;106641;1262;99220;-82
2024/03/30 03:12:07;;;;;;;13.00;8.30;;;;;;;10.21;76.60;99629.80;106389;1261;99337;-78
2024/03/30 03:14:52;;;;;;;14.60;8.10;;;;;;;10.19;76.72;99626.78;105899;1263;99369;-80
2024/03/30 03:17:37;;;;;;;16.30;8.20;;;;;;;10.15;76.74;99628.33;108121;1262;102826;-80
2024/03/30 03:20:22;;;;;;;17.50;9.20;;;;;;;10.12;76.76;99626.71;106855;1262;99393;-80
2024/03/30 03:23:08;;;;;;;14.10;8.30;;;;;;;10.10;77.09;99625.05;106568;1266;99530;-80
2024/03/30 03:25:53;;;;;;;24.90;9.80;;;;;;;10.10;76.99;99620.14;106587;1262;99361;-79
2024/03/30 03:28:38;;;;;;;23.20;11.50;;;;;;;10.09;76.91;99621.26;106470;1261;99042;-80
2024/03/30 03:31:24;;;;;;;22.10;11.20;;;;;;;10.08;76.75;99621.91;106515;1262;103969;-80
2024/03/30 03:34:10;;;;;;;18.10;10.20;;;;;;;10.07;76.58;99619.07;106507;1264;100472;-80
2024/03/30 03:36:56;;;;;;;20.00;9.90;;;;;;;10.05;76.77;99622.20;106326;1264;99372;-81
2024/03/30 03:39:41;;;;;;;20.00;9.90;;;;;;;10.03;76.87;99627.88;106663;1261;98912;-81
2024/03/30 03:42:27;;;;;;;16.60;9.50;;;;;;;10.00;76.94;99634.14;106696;1260;98340;-80
2024/03/30 03:45:13;;;;;;;19.00;9.80;;;;;;;9.98;76.96;99643.16;106700;1262;103803;-81
2024/03/30 03:47:58;;;;;;;22.40;10.70;;;;;;;9.96;77.07;99643.08;106521;1265;99833;-80
2024/03/30 03:50:43;;;;;;;22.40;11.50;;;;;;;9.90;76.89;99643.70;106540;1262;99226;-81
2024/03/30 03:53:29;;;;;;;19.20;10.60;;;;;;;9.85;76.98;99647.02;106391;1262;162719;-79
2024/03/30 03:56:14;;;;;;;17.40;9.40;;;;;;;9.81;77.16;99650.31;106089;1265;99332;-81
2024/03/30 03:58:59;;;;;;;20.60;9.90;;;;;;;9.76;76.90;99651.83;106591;1264;102764;-82
2024/03/30 04:01:45;;;;;;;20.00;10.90;;;;;;;9.70;76.72;99657.96;106572;1262;109229;-81
2024/03/30 04:04:30;;;;;;;17.50;11.20;;;;;;;9.66;77.07;99661.40;106598;1262;99258;-81
2024/03/30 04:07:16;;;;;;;23.70;10.70;;;;;;;9.63;77.38;99663.46;106676;1262;99250;-81
2024/03/30 04:10:02;;;;;;;18.40;9.70;;;;;;;9.59;77.53;99660.94;106705;1262;97830;-79
2024/03/30 04:12:48;;;;;;;17.70;10.50;;;;;;;9.56;77.32;99662.00;106227;1264;102718;-78
2024/03/30 04:15:34;;;;;;;22.90;11.00;;;;;;;9.52;77.38;99665.21;105272;1268;99334;-78
2024/03/30 04:18:20;;;;;;;21.70;10.90;;;;;;;9.50;77.56;99672.31;105612;1261;99218;-79
2024/03/30 04:21:05;;;;;;;19.80;10.20;;;;;;;9.47;77.84;99679.09;105772;1265;99337;-79
2024/03/30 04:23:51;;;;;;;19.90;9.80;;;;;;;9.44;77.88;99677.88;105907;1262;99256;-80
2024/03/30 04:26:36;;;;;;;22.30;10.40;;;;;;;9.40;78.11;99679.85;105777;1262;103414;-79
2024/03/30 04:29:22;;;;;;;22.70;10.30;;;;;;;9.36;78.04;99679.80;105892;1265;99335;-79
2024/03/30 04:32:07;;;;;;;18.40;9.40;;;;;;;9.34;78.20;99676.01;105829;1265;99301;-79
2024/03/30 04:34:53;;;;;;;19.40;9.30;;;;;;;9.31;78.37;99675.63;106027;1261;99713;-79
2024/03/30 04:37:38;;;;;;;22.90;10.30;;;;;;;9.27;78.54;99675.42;105977;1265;99335;-79
2024/03/30 04:40:26;;;;;;;18.40;10.70;;;;;;;9.25;78.70;99675.93;105952;1260;103296;-79
2024/03/30 04:43:12;;;;;;;20.70;11.50;;;;;;;9.25;78.76;99676.34;106554;1262;99369;-80
2024/03/30 04:45:58;;;;;;;29.30;16.90;;;;;;;9.23;79.14;99673.75;106638;1261;99362;-81
2024/03/30 04:48:47;;;;;;;32.20;17.30;;;;;;;9.21;79.64;99670.98;106590;1262;99257;-81
2024/03/30 04:51:33;;;;;;;32.10;17.70;;;;;;;9.20;79.81;99672.11;106649;1261;100081;-81
2024/03/30 04:54:18;;;;;;;31.00;17.60;;;;;;;9.20;79.92;99669.27;106449;1263;102677;-80
2024/03/30 04:57:04;;;;;;;23.60;13.30;;;;;;;9.21;80.28;99667.51;106472;1260;99288;-80
2024/03/30 04:59:49;;;;;;;25.90;12.70;;;;;;;9.22;80.31;99668.33;106642;1260;99334;-80
2024/03/30 05:02:34;;;;;;;20.10;11.30;;;;;;;9.22;80.68;99665.29;106511;1265;99258;-81
2024/03/30 05:05:20;;;;;;;27.30;12.50;;;;;;;9.24;81.04;99665.74;106601;1260;99325;-80
2024/03/30 05:08:05;;;;;;;24.20;10.90;;;;;;;9.25;81.18;99660.23;106601;1263;102887;-80
2024/03/30 05:10:52;;;;;;;28.10;11.10;;;;;;;9.28;81.34;99656.71;106343;1261;100365;-80
2024/03/30 05:13:37;;;;;;;25.80;11.50;;;;;;;9.30;81.63;99660.79;106073;1262;99363;-80
2024/03/30 05:16:23;;;;;;;25.20;11.40;;;;;;;9.32;82.04;99665.35;106509;1265;99315;-81
2024/03/30 05:20:48;;;;;;;27.50;11.90;;;;;;;9.35;82.43;99672.14;106458;1262;98226;-81
2024/03/30 05:22:14;;;;;;;25.90;12.50;;;;;;;9.38;82.89;99670.92;106119;1261;102701;-82
2024/03/30 05:24:59;;;;;;;25.00;12.00;;;;;;;9.40;83.09;99670.23;106593;1261;99141;-80
2024/03/30 05:27:45;;;;;;;22.00;9.40;;;;;;;9.44;83.49;99668.60;106387;1267;98266;-81
2024/03/30 05:30:30;;;;;;;20.00;10.00;;;;;;;9.49;83.35;99669.39;106052;1264;99448;-79
2024/03/30 05:33:17;;;;;;;19.60;10.80;;;;;;;9.54;83.93;99671.79;106093;1265;99810;-78
2024/03/30 05:36:02;;;;;;;23.70;10.20;;;;;;;9.57;84.12;99673.80;105961;1262;102718;-79
2024/03/30 05:38:48;;;;;;;19.00;10.10;;;;;;;9.61;84.11;99674.68;105351;1266;99443;-79
2024/03/30 05:41:33;;;;;;;17.00;9.00;;;;;;;9.65;84.27;99677.17;105931;1261;99362;-80
2024/03/30 05:44:19;;;;;;;18.40;8.90;;;;;;;9.70;84.44;99674.94;105994;1261;99446;-80
2024/03/30 05:47:04;;;;;;;14.80;8.30;;;;;;;9.74;84.72;99674.91;106070;1265;99896;-80
2024/03/30 05:49:50;;;;;;;17.40;9.20;;;;;;;9.79;84.92;99671.20;105912;1265;102716;-80
2024/03/30 05:52:36;;;;;;;20.30;9.40;;;;;;;9.85;85.05;99668.13;106416;1265;99278;-80
2024/03/30 05:55:22;;;;;;;21.70;9.30;;;;;;;9.91;85.68;99667.80;106228;1266;99340;-79
2024/03/30 05:58:09;;;;;;;18.40;9.40;;;;;;;9.98;86.23;99674.14;106111;1262;99327;-80
2024/03/30 06:00:55;;;;;;;19.10;8.90;;;;;;;10.06;85.89;99683.29;106741;1262;99146;-79
2024/03/30 06:03:40;;;;;;;19.80;8.90;;;;;;;10.13;85.94;99690.85;106488;1262;102718;-80
2024/03/30 06:06:26;;;;;;;20.40;10.00;;;;;;;10.20;85.80;99689.42;106376;1264;100394;-80
2024/03/30 06:09:11;;;;;;;18.00;9.30;;;;;;;10.27;86.22;99682.62;106474;1262;99169;-81
2024/03/30 06:11:57;;;;;;;19.70;9.10;;;;;;;10.35;86.34;99683.44;106341;1265;99922;-79
2024/03/30 06:14:46;;;;;;;19.90;8.60;;;;;;;10.42;86.45;99683.35;106310;1260;99264;-79
2024/03/30 06:17:35;;;;;;;14.70;8.50;;;;;;;10.51;86.83;99684.08;106357;1267;103422;-79
2024/03/30 06:20:21;;;;;;;19.40;9.40;;;;;;;10.61;87.34;99678.04;105847;1266;100930;-81
2024/03/30 06:23:06;;;;;;;20.70;9.50;;;;;;;10.72;87.77;99680.03;105985;1264;99450;-79
2024/03/30 06:25:52;;;;;;;20.20;9.50;;;;;;;10.82;87.77;99677.73;106357;1266;99327;-79
2024/03/30 06:28:37;;;;;;;16.00;10.00;;;;;;;10.93;88.04;99672.22;106428;1265;99771;-79
2024/03/30 06:31:22;;;;;;;20.60;9.70;;;;;;;11.04;87.89;99670.87;106380;1268;102710;-79
2024/03/30 06:34:08;;;;;;;18.30;9.20;;;;;;;11.14;87.75;99672.30;106379;1264;99340;-79
2024/03/30 06:36:53;;;;;;;22.10;9.90;;;;;;;11.24;87.83;99673.49;105801;1266;99254;-80
2024/03/30 06:45:47;;;;;;;17.40;8.10;;;;;;;11.60;88.01;99681.08;106618;1265;102719;-80
2024/03/30 06:48:33;;;;;;;14.80;8.00;;;;;;;11.73;87.99;99686.67;106574;1260;100347;-79
2024/03/30 06:51:18;;;;;;;13.20;7.00;;;;;;;11.85;88.29;99694.52;106547;1265;99673;-79
2024/03/30 06:54:04;;;;;;;17.30;7.30;;;;;;;11.99;88.43;99700.48;106752;1261;99329;-79
2024/03/30 06:56:49;;;;;;;16.90;7.40;;;;;;;12.11;88.07;99705.32;106630;1260;99245;-79
2024/03/30 06:59:35;;;;;;;13.60;6.30;;;;;;;12.23;87.49;99705.17;106584;1260;103974;-80
2024/03/30 07:02:20;;;;;;;20.40;7.90;;;;;;;12.34;87.05;99705.87;106652;1268;99985;-79
2024/03/30 07:05:06;;;;;;;12.50;5.70;;;;;;;12.46;86.82;99705.31;105956;1263;99334;-78
2024/03/30 07:07:52;;;;;;;15.10;6.40;;;;;;;12.56;86.82;99702.59;105790;1261;99256;-79
2024/03/30 07:10:37;;;;;;;14.80;6.90;;;;;;;12.67;87.13;99703.26;106014;1266;99320;-79
2024/03/30 07:13:23;;;;;;;15.60;7.40;;;;;;;12.79;87.49;99703.59;106050;1266;102661;-79
2024/03/30 07:16:08;;;;;;;22.40;7.00;;;;;;;12.94;87.49;99698.91;105889;1266;99344;-79
2024/03/30 07:18:53;;;;;;;16.70;7.10;;;;;;;13.08;87.51;99695.59;105960;1267;99223;-79
2024/03/30 07:21:39;;;;;;;14.10;5.70;;;;;;;13.21;87.63;99688.95;105806;1262;99236;-79
2024/03/30 07:24:25;;;;;;;16.50;6.00;;;;;;;13.35;87.24;99684.43;105975;1265;101134;-80
2024/03/30 07:27:11;;;;;;;13.40;5.80;;;;;;;13.47;86.96;99682.23;105920;1265;103638;-79
2024/03/30 07:29:56;;;;;;;11.80;4.80;;;;;;;13.57;86.61;99678.88;106130;1265;99428;-79
2024/03/30 07:32:42;;;;;;;17.40;5.70;;;;;;;13.70;86.78;99677.33;106469;1260;99319;-80
2024/03/30 07:35:28;;;;;;;13.60;5.90;;;;;;;13.83;87.00;99672.56;106346;1262;99254;-80
2024/03/30 07:38:13;;;;;;;18.20;5.10;;;;;;;14.02;87.29;99671.45;106571;1264;99119;-80
2024/03/30 07:40:59;;;;;;;12.00;4.40;;;;;;;14.18;86.81;99671.08;106451;1260;104062;-80
2024/03/30 07:43:45;;;;;;;20.10;6.40;;;;;;;14.36;85.98;99669.64;106361;1265;99165;-80
2024/03/30 07:46:30;;;;;;;18.10;4.70;;;;;;;14.53;85.74;99670.57;105766;1265;99323;-80
2024/03/30 07:49:16;;;;;;;16.10;4.00;;;;;;;14.67;85.61;99668.33;105912;1260;99338;-80
2024/03/30 07:52:01;;;;;;;13.00;4.40;;;;;;;14.81;85.15;99668.30;106100;1265;99984;-80
2024/03/30 07:54:49;;;;;;;18.80;4.80;;;;;;;14.96;84.94;99669.73;106697;1260;102812;-80
2024/03/30 07:57:35;;;;;;;16.70;4.30;;;;;;;15.12;84.94;99674.52;106516;1267;100451;-79
2024/03/30 08:00:22;;;;;;;21.00;5.20;;;;;;;15.28;84.36;99671.67;106497;1265;99451;-80
2024/03/30 08:03:08;;;;;;;11.90;4.30;;;;;;;15.43;83.98;99672.42;106472;1266;99443;-80
2024/03/30 08:05:55;;;;;;;17.00;4.70;;;;;;;15.56;83.96;99675.70;106351;1260;99386;-80
2024/03/30 08:08:41;;;;;;;12.40;4.10;;;;;;;15.72;83.56;99675.79;106606;1261;104402;-80
2024/03/30 08:11:26;;;;;;;14.20;4.40;;;;;;;15.86;83.10;99671.98;106345;1263;100111;-79
2024/03/30 08:14:12;;;;;;;19.10;4.30;;;;;;;16.02;82.82;99671.04;106523;1264;99173;-79
2024/03/30 08:16:57;;;;;;;15.70;4.80;;;;;;;16.15;82.32;99666.19;106349;1266;99319;-79
2024/03/30 08:19:42;;;;;;;11.70;3.80;;;;;;;16.28;82.17;99667.25;105925;1265;99455;-79
2024/03/30 08:22:28;;;;;;;16.50;4.10;;;;;;;16.41;81.54;99668.25;105835;1267;102689;-79
2024/03/30 08:25:13;;;;;;;17.00;3.70;;;;;;;16.53;80.77;99662.59;105868;1267;99308;-79
2024/03/30 08:27:58;;;;;;;17.30;4.50;;;;;;;16.66;80.07;99657.36;105878;1266;99444;-79
2024/03/30 08:30:44;;;;;;;15.40;3.90;;;;;;;16.79;79.43;99657.05;105445;1260;99428;-79
2024/03/30 08:33:31;;;;;;;20.00;4.00;;;;;;;16.92;79.48;99655.29;105462;1267;99385;-78
2024/03/30 08:36:16;;;;;;;16.10;3.70;;;;;;;17.05;78.61;99651.23;106126;1265;103357;-80
2024/03/30 08:39:02;;;;;;;12.30;3.20;;;;;;;17.20;77.97;99646.98;106154;1261;99138;-80
2024/03/30 08:41:48;;;;;;;19.30;3.90;;;;;;;17.33;77.65;99647.36;105842;1266;99118;-82
2024/03/30 08:44:33;;;;;;;15.50;4.40;;;;;;;17.37;76.60;99651.69;105998;1260;99407;-83
2024/03/30 08:47:19;;;;;;;18.20;3.40;;;;;;;17.36;76.00;99651.50;105953;1265;99831;-84
2024/03/30 08:50:05;;;;;;;14.80;4.00;;;;;;;17.36;75.84;99656.38;105626;1266;103948;-84
2024/03/30 08:52:51;;;;;;;14.60;3.50;;;;;;;17.38;75.90;99659.80;105457;1265;100412;-81
2024/03/30 08:55:38;;;;;;;18.90;4.00;;;;;;;17.40;75.64;99662.05;105952;1260;99503;-84
2024/03/30 08:58:24;;;;;;;21.50;3.90;;;;;;;17.42;75.43;99660.45;105601;1260;99318;-85
2024/03/30 09:01:10;;;;;;;16.90;4.80;;;;;;;17.44;74.70;99661.07;105497;1264;99410;-82
2024/03/30 09:03:55;;;;;;;11.30;3.50;;;;;;;17.48;74.82;99659.11;105778;1264;102748;-83
2024/03/30 09:06:41;;;;;;;18.20;3.70;;;;;;;17.52;74.65;99655.52;105974;1265;99414;-83
2024/03/30 09:09:28;;;;;;;14.30;3.90;;;;;;;17.57;74.41;99655.19;105938;1267;99352;-80
2024/03/30 09:12:14;;;;;;;17.50;3.80;;;;;;;17.68;74.69;99650.84;105901;1267;99350;-81
2024/03/30 09:15:00;;;;;;;25.30;4.60;;;;;;;17.82;74.39;99650.23;105812;1264;99787;-81
2024/03/30 09:17:46;;;;;;;21.20;4.30;;;;;;;17.91;74.10;99653.73;105860;1265;103960;-81
2024/03/30 09:20:32;;;;;;;10.60;3.60;;;;;;;17.94;73.29;99654.20;106015;1265;99896;-84
2024/03/30 09:23:17;;;;;;;19.60;3.80;;;;;;;17.98;73.34;99650.11;105866;1260;99946;-83
2024/03/30 09:26:03;;;;;;;15.80;3.60;;;;;;;18.06;73.32;99648.66;106024;1261;99273;-83
2024/03/30 09:28:49;;;;;;;22.70;4.50;;;;;;;18.15;72.73;99644.95;106111;1265;99265;-82
2024/03/30 09:31:36;;;;;;;19.60;4.20;;;;;;;18.21;72.50;99636.48;106259;1265;102792;-82
2024/03/30 09:34:21;;;;;;;21.60;4.00;;;;;;;18.26;72.30;99638.30;106046;1260;100488;-84
2024/03/30 09:37:08;;;;;;;17.00;3.70;;;;;;;18.34;71.94;99637.50;106165;1261;99778;-83
2024/03/30 09:39:53;;;;;;;17.10;3.40;;;;;;;18.44;71.55;99636.45;105862;1267;99323;-84
2024/03/30 09:42:42;;;;;;;22.70;4.10;;;;;;;18.52;71.76;99637.10;105703;1267;99745;-84
2024/03/30 09:45:29;;;;;;;17.90;4.20;;;;;;;18.60;71.78;99633.70;105642;1267;102761;-83
2024/03/30 09:48:18;;;;;;;16.00;3.70;;;;;;;18.70;71.46;99631.73;105698;1266;99331;-84
2024/03/30 09:51:07;;;;;;;16.90;4.30;;;;;;;18.78;71.16;99627.38;105561;1265;99354;-84
2024/03/30 09:53:54;;;;;;;21.00;3.10;;;;;;;18.86;70.70;99624.88;107713;1263;99310;-83
2024/03/30 09:56:43;;;;;;;20.70;3.40;;;;;;;18.95;70.55;99623.02;105798;1266;99836;-83
2024/03/30 09:59:29;;;;;;;16.00;3.30;;;;;;;19.05;70.08;99620.80;105882;1260;103625;-83
2024/03/30 10:02:14;;;;;;;13.90;3.40;;;;;;;19.15;69.96;99619.48;105703;1260;99359;-83
2024/03/30 10:05:00;;;;;;;18.20;3.70;;;;;;;19.26;69.41;99617.27;105594;1265;100521;-84
2024/03/30 10:08:02;;;;;;;17.90;3.60;;;;;;;19.36;68.71;99615.70;105691;1263;99315;-82
2024/03/30 10:10:53;;;;;;;14.10;3.20;;;;;;;19.44;68.69;99617.36;105682;1264;99782;-83
2024/03/30 10:13:48;;;;;;;18.80;3.80;;;;;;;19.51;69.13;99620.20;105801;1260;104044;-83
2024/03/30 10:16:34;;;;;;;19.50;3.80;;;;;;;19.60;68.44;99618.27;105656;1266;100402;-82
2024/03/30 10:19:20;;;;;;;17.90;3.40;;;;;;;19.68;68.21;99614.95;105755;1264;99303;-82
2024/03/30 10:22:06;;;;;;;14.40;3.20;;;;;;;19.75;67.79;99611.45;105553;1260;99230;-83
2024/03/30 10:24:53;;;;;;;18.80;3.00;;;;;;;19.82;67.33;99611.28;105634;1261;99411;-86
2024/03/30 10:27:39;;;;;;;14.50;2.90;;;;;;;19.89;66.12;99611.34;105838;1260;102779;-86
2024/03/30 10:30:25;;;;;;;16.80;3.80;;;;;;;19.94;66.33;99610.64;105632;1266;99229;-85
2024/03/30 10:33:17;;;;;;;16.10;3.60;;;;;;;20.00;66.54;99609.01;105766;1260;99411;-86
2024/03/30 10:36:02;;;;;;;13.90;4.00;;;;;;;20.06;65.93;99601.45;105586;1263;100623;-87
2024/03/30 10:38:49;;;;;;;18.40;3.80;;;;;;;20.12;65.82;99601.13;106007;1262;99828;-85
2024/03/30 10:41:34;;;;;;;14.00;3.00;;;;;;;20.19;64.72;99602.28;105906;1267;103999;-88
2024/03/30 10:44:30;;;;;;;17.90;3.10;;;;;;;20.27;64.93;99601.08;106117;1260;99451;-89
2024/03/30 10:47:16;;;;;;;17.00;4.10;;;;;;;20.33;64.54;99597.20;106333;1269;99353;-88
2024/03/30 10:50:03;;;;;;;16.90;3.40;;;;;;;20.39;64.29;99596.23;106422;1263;99372;-90
2024/03/30 10:52:50;;;;;;;16.00;3.00;;;;;;;20.43;63.85;99587.95;106106;1260;99780;-86
2024/03/30 10:55:37;;;;;;;19.10;6.30;;;;;;;20.52;64.16;99591.79;105653;1260;105084;-89
2024/03/30 10:58:24;;;;;;;15.30;3.90;;;;;;;20.61;64.22;99587.09;106092;1262;100329;-86
2024/03/30 11:01:11;;;;;;;23.50;4.60;;;;;;;20.67;63.62;99588.48;106659;1260;99299;-90
2024/03/30 11:03:58;;;;;;;14.70;3.40;;;;;;;20.74;62.68;99586.06;105805;1263;99336;-88
2024/03/30 11:06:46;;;;;;;17.00;3.30;;;;;;;20.80;62.10;99587.13;106172;1260;99238;-80
2024/03/30 11:09:33;;;;;;;13.80;3.20;;;;;;;20.83;62.03;99585.55;106202;1260;111276;-83
2024/03/30 11:12:19;;;;;;;17.90;3.00;;;;;;;20.88;62.39;99587.54;106245;1264;100370;-83
2024/03/30 11:15:05;;;;;;;15.50;3.40;;;;;;;20.94;61.77;99585.83;106063;1260;99966;-91
2024/03/30 11:17:57;;;;;;;18.40;3.60;;;;;;;20.99;61.70;99579.05;106201;1263;99254;-86
2024/03/30 11:21:22;;;;;;;15.50;3.30;;;;;;;21.06;61.10;99577.84;105864;1266;99757;-85
2024/03/30 11:24:10;;;;;;;16.50;3.00;;;;;;;21.14;60.63;99571.70;106107;1265;103440;-83
2024/03/30 11:27:00;;;;;;;12.20;3.60;;;;;;;21.22;60.98;99572.38;106226;1262;99090;-84
2024/03/30 11:29:59;;;;;;;10.70;2.90;;;;;;;21.28;60.45;99565.14;106066;1265;99309;-88
2024/03/30 11:32:54;;;;;;;12.10;3.00;;;;;;;21.35;61.05;99564.34;105771;1260;99444;-83
2024/03/30 11:35:47;;;;;;;15.90;4.30;;;;;;;21.43;60.58;99562.27;106075;1262;98174;-84
2024/03/30 11:38:35;;;;;;;14.70;2.90;;;;;;;21.52;60.23;99562.23;105752;1267;102717;-82
2024/03/30 11:41:20;;;;;;;17.60;3.50;;;;;;;21.59;59.44;99562.23;105977;1262;99324;-85
2024/03/30 11:44:11;;;;;;;15.80;3.80;;;;;;;21.66;58.97;99562.94;105622;1261;100659;-80
2024/03/30 11:46:57;;;;;;;15.20;2.90;;;;;;;21.73;58.40;99563.80;105958;1261;99233;-81
2024/03/30 11:49:44;;;;;;;10.50;3.20;;;;;;;21.78;57.66;99562.68;106154;1265;99840;-81
2024/03/30 11:52:30;;;;;;;13.30;3.00;;;;;;;21.84;57.29;99557.36;105821;1260;103154;-80
2024/03/30 11:55:29;;;;;;;12.60;3.20;;;;;;;21.91;57.55;99558.08;105834;1265;100353;-81
2024/03/30 11:58:23;;;;;;;14.70;2.90;;;;;;;21.97;58.26;99558.73;105861;1264;99378;-81
2024/03/30 12:01:12;;;;;;;14.90;2.30;;;;;;;22.05;57.75;99554.18;105968;1261;99366;-80
2024/03/30 12:03:58;;;;;;;19.50;3.70;;;;;;;22.12;57.24;99551.66;105957;1260;99854;-79
2024/03/30 12:06:43;;;;;;;15.00;3.00;;;;;;;22.15;57.00;99552.50;105865;1264;103557;-89
2024/03/30 12:09:30;;;;;;;16.40;3.40;;;;;;;22.20;56.73;99546.95;106049;1262;100461;-85
2024/03/30 12:12:28;;;;;;;13.50;3.20;;;;;;;22.25;56.13;99543.96;105523;1268;99375;-83
2024/03/30 12:15:14;;;;;;;15.80;3.20;;;;;;;22.30;55.93;99542.32;105649;1263;99768;-80
2024/03/30 12:18:01;;;;;;;11.90;3.50;;;;;;;22.34;55.81;99537.42;105467;1260;99866;-81
2024/03/30 12:20:50;;;;;;;17.30;3.90;;;;;;;22.42;55.89;99536.45;105821;1261;104465;-81
2024/03/30 12:23:37;;;;;;;17.80;3.50;;;;;;;22.50;56.03;99533.42;105889;1267;100807;-85
2024/03/30 12:26:24;;;;;;;13.90;2.80;;;;;;;22.55;54.97;99529.33;105723;1260;99414;-84
2024/03/30 12:29:09;;;;;;;15.20;3.30;;;;;;;22.60;54.71;99528.36;106143;1263;97794;-82
2024/03/30 12:31:55;;;;;;;9.40;3.20;;;;;;;22.68;54.83;99529.42;105458;1262;99773;-77
2024/03/30 12:34:42;;;;;;;16.20;3.20;;;;;;;22.76;54.59;99530.08;105426;1264;112584;-81
2024/03/30 12:37:28;;;;;;;12.20;2.60;;;;;;;22.82;54.34;99529.61;105428;1261;100257;-79
2024/03/30 12:40:14;;;;;;;8.10;2.50;;;;;;;22.86;54.23;99531.80;105421;1265;99268;-81
2024/03/30 12:43:00;;;;;;;11.20;3.10;;;;;;;22.90;54.11;99527.33;105540;1265;99174;-81
2024/03/30 12:45:46;;;;;;;14.40;3.40;;;;;;;22.98;53.79;99526.25;105936;1265;99979;-81
2024/03/30 12:48:31;;;;;;;13.10;4.10;;;;;;;23.07;53.69;99525.47;105836;1265;102728;-81